Time;durP1;ratioP1;P1;durP2;ratioP2;P2;SDS_P1;SDS_P2;PMS_P1;PMS_P2;Temp;Humidity;BMP_temperature;BMP_pressure;BME280_temperature;BME280_humidity;BME280_pressure;Samples;Min_cycle;Max_cycle;Signal;HPM_P1;HPM_P2
2022/09/05 00:00:21;;;;;;;;;;;;;;;20.61;100.00;98818.81;5075599;28;19928;-77
2022/09/05 00:02:52;;;;;;;;;;;;;;;20.71;100.00;98823.06;5057656;28;19985;-78
2022/09/05 00:05:35;;;;;;;;;;;;;;;20.51;100.00;98831.56;5075793;28;19925;-78
2022/09/05 00:08:10;;;;;;;;;;;;;;;20.67;100.00;98834.63;5075479;28;19924;-77
2022/09/05 00:10:50;;;;;;;;;;;;;;;20.86;100.00;98837.94;5075333;28;20261;-77
2022/09/05 00:13:22;;;;;;;;;;;;;;;20.99;100.00;98827.78;5075482;28;19931;-78
2022/09/05 00:15:59;;;;;;;;;;;;;;;20.79;100.00;98841.22;5057451;28;19930;-77
2022/09/05 00:18:33;;;;;;;;;;;;;;;20.69;100.00;98834.13;5057136;28;20348;-78
2022/09/05 00:21:19;;;;;;;;;;;;;;;20.40;100.00;98820.84;5075096;28;19930;-78
2022/09/05 00:24:02;;;;;;;;;;;;;;;20.50;100.00;98832.84;5057278;28;19931;-78
2022/09/05 00:26:43;;;;;;;;;;;;;;;20.53;100.00;98812.78;5057345;28;19928;-78
2022/09/05 00:29:10;;;;;;;;;;;;;;;20.44;100.00;98806.44;5057230;28;19928;-78
2022/09/05 00:31:40;;;;;;;;;;;;;;;20.34;100.00;98805.03;5057121;28;19924;-78
2022/09/05 00:34:14;;;;;;;;;;;;;;;20.27;100.00;98811.13;5057344;28;19924;-78
2022/09/05 00:36:46;;;;;;;;;;;;;;;20.40;100.00;98808.72;5074956;28;19925;-77
2022/09/05 00:39:19;;;;;;;;;;;;;;;20.53;100.00;98801.44;5074829;28;19924;-78
2022/09/05 00:41:50;;;;;;;;;;;;;;;20.57;100.00;98795.53;5057082;28;20299;-78
2022/09/05 00:44:19;;;;;;;;;;;;;;;20.52;100.00;98794.16;5074817;28;19925;-78
2022/09/05 00:46:55;;;;;;;;;;;;;;;20.44;100.00;98793.06;5073996;28;19998;-78
2022/09/05 00:49:35;;;;;;;;;;;;;;;20.63;100.00;98787.88;5040432;28;19935;-78
2022/09/05 00:52:19;;;;;;;;;;;;;;;20.46;100.00;98795.41;5074662;28;19927;-78
2022/09/05 00:55:06;;;;;;;;;;;;;;;20.41;100.00;98781.91;5040941;28;20528;-78
2022/09/05 00:57:34;;;;;;;;;;;;;;;20.44;100.00;98781.69;5056717;28;20031;-78
2022/09/05 01:00:10;;;;;;;;;;;;;;;20.37;100.00;98775.69;5039803;28;20343;-78
2022/09/05 01:02:44;;;;;;;;;;;;;;;20.39;100.00;98785.25;5073764;28;19931;-78
2022/09/05 01:05:11;;;;;;;;;;;;;;;20.59;100.00;98856.19;5073999;28;19946;-78
2022/09/05 01:07:57;;;;;;;;;;;;;;;20.79;100.00;98954.78;5073953;28;19932;-78
2022/09/05 01:10:24;;;;;;;;;;;;;;;20.36;100.00;98989.72;5055974;28;20070;-78
2022/09/05 01:13:18;;;;;;;;;;;;;;;19.51;100.00;99004.91;5055794;28;20422;-78
2022/09/05 01:15:58;;;;;;;;;;;;;;;18.71;100.00;98978.72;5054031;28;19924;-78
2022/09/05 01:18:48;;;;;;;;;;;;;;;18.80;100.00;98947.53;5074119;28;19924;-78
2022/09/05 01:21:25;;;;;;;;;;;;;;;19.12;100.00;98952.34;5056277;28;19962;-78
2022/09/05 01:24:11;;;;;;;;;;;;;;;19.20;100.00;98945.84;5039283;28;19931;-78
2022/09/05 01:26:47;;;;;;;;;;;;;;;19.09;100.00;98928.63;5055852;28;19924;-78
2022/09/05 01:29:23;;;;;;;;;;;;;;;19.10;100.00;98930.16;5073471;28;20368;-78
2022/09/05 01:32:09;;;;;;;;;;;;;;;19.08;100.00;98938.38;5073331;28;19935;-78
2022/09/05 01:34:54;;;;;;;;;;;;;;;18.99;100.00;98923.50;5055515;28;19924;-78
2022/09/05 01:37:27;;;;;;;;;;;;;;;18.36;100.00;98910.50;5055600;28;19925;-78
2022/09/05 01:40:14;;;;;;;;;;;;;;;18.45;100.00;98921.81;5055813;28;19932;-77
2022/09/05 01:42:54;;;;;;;;;;;;;;;18.51;100.00;98922.72;5056231;28;20272;-77
2022/09/05 01:45:27;;;;;;;;;;;;;;;18.56;100.00;98927.72;5073635;28;19925;-77
2022/09/05 01:48:00;;;;;;;;;;;;;;;18.49;100.00;98925.28;5056210;28;20379;-77
2022/09/05 01:50:41;;;;;;;;;;;;;;;18.41;100.00;98926.88;5055789;28;19939;-77
2022/09/05 01:53:24;;;;;;;;;;;;;;;18.58;100.00;98915.94;5073731;28;19931;-77
2022/09/05 01:56:06;;;;;;;;;;;;;;;18.61;100.00;98907.28;5073761;28;19929;-77
2022/09/05 01:58:48;;;;;;;;;;;;;;;18.46;100.00;98891.50;5055874;28;20348;-77
2022/09/05 02:01:21;;;;;;;;;;;;;;;18.43;100.00;98893.25;5073593;28;20367;-77
2022/09/05 02:03:54;;;;;;;;;;;;;;;18.36;100.00;98887.13;5073689;28;19971;-77
2022/09/05 02:06:33;;;;;;;;;;;;;;;18.15;100.00;98891.78;5073641;28;19974;-77
2022/09/05 02:09:13;;;;;;;;;;;;;;;18.27;100.00;98907.75;5073587;28;19924;-77
2022/09/05 02:11:43;;;;;;;;;;;;;;;18.05;100.00;98887.44;5055503;28;20277;-77
2022/09/05 02:14:24;;;;;;;;;;;;;;;18.48;100.00;98905.94;5073318;28;20015;-77
2022/09/05 02:16:53;;;;;;;;;;;;;;;18.41;100.00;98884.44;5073586;28;19929;-77
2022/09/05 02:19:20;;;;;;;;;;;;;;;18.23;100.00;98887.34;5073441;28;20268;-77
2022/09/05 02:22:09;;;;;;;;;;;;;;;18.08;100.00;98883.66;5055202;28;19924;-77
2022/09/05 02:24:47;;;;;;;;;;;;;;;18.46;100.00;98892.28;5055734;28;19925;-78
2022/09/05 02:27:29;;;;;;;;;;;;;;;18.54;100.00;98898.38;5073444;28;19924;-77
2022/09/05 02:30:08;;;;;;;;;;;;;;;18.30;100.00;98895.47;5073173;28;20300;-77
2022/09/05 02:32:36;;;;;;;;;;;;;;;18.26;100.00;98911.84;5055676;28;20015;-77
2022/09/05 02:35:09;;;;;;;;;;;;;;;18.51;100.00;98910.63;5055365;28;20337;-77
2022/09/05 02:37:36;;;;;;;;;;;;;;;18.63;100.00;98913.22;5055664;28;19925;-77
2022/09/05 02:40:35;;;;;;;;;;;;;;;18.61;100.00;98910.09;5073262;28;20042;-77
2022/09/05 02:43:05;;;;;;;;;;;;;;;18.46;100.00;98908.47;4994482;28;20293;-78
2022/09/05 02:45:51;;;;;;;;;;;;;;;18.69;100.00;98882.22;4994914;28;19932;-77
2022/09/05 02:48:19;;;;;;;;;;;;;;;18.85;100.00;98879.72;5011244;28;19925;-78
2022/09/05 02:51:04;;;;;;;;;;;;;;;18.96;100.00;98893.34;5010999;28;19968;-77
2022/09/05 02:53:53;;;;;;;;;;;;;;;18.85;100.00;98904.41;5010442;28;19932;-78
2022/09/05 02:56:24;;;;;;;;;;;;;;;19.14;100.00;98899.63;5011143;28;19929;-77
2022/09/05 02:59:03;;;;;;;;;;;;;;;19.15;100.00;98894.72;4994591;28;19930;-77
2022/09/05 03:01:43;;;;;;;;;;;;;;;18.51;100.00;98890.84;5011257;28;19925;-77
2022/09/05 03:04:25;;;;;;;;;;;;;;;18.41;100.00;98890.09;5011150;28;19925;-77
2022/09/05 03:07:04;;;;;;;;;;;;;;;18.71;100.00;98863.47;5011118;28;19926;-77
2022/09/05 03:09:43;;;;;;;;;;;;;;;18.64;100.00;98860.25;4994870;28;19929;-77
2022/09/05 03:12:13;;;;;;;;;;;;;;;18.85;100.00;98878.94;5013883;28;20024;-77
2022/09/05 03:14:43;;;;;;;;;;;;;;;18.82;100.00;98886.38;5014696;28;19925;-78
2022/09/05 03:17:13;;;;;;;;;;;;;;;18.71;100.00;98880.47;5014660;28;19925;-77
2022/09/05 03:19:54;;;;;;;;;;;;;;;18.96;100.00;98862.19;5052161;28;20313;-78
2022/09/05 03:22:59;;;;;;;;;;;;;;;19.04;100.00;98855.66;5076428;28;19928;-78
2022/09/05 03:25:44;;;;;;;;;;;;;;;19.14;100.00;98871.31;4998027;28;19933;-78
2022/09/05 03:28:11;;;;;;;;;;;;;;;19.24;100.00;98878.44;5014592;28;19930;-78
2022/09/05 03:30:52;;;;;;;;;;;;;;;19.01;100.00;98876.44;4998060;28;19980;-78
2022/09/05 03:33:37;;;;;;;;;;;;;;;19.15;100.00;98886.25;4997877;28;20011;-77
2022/09/05 03:36:23;;;;;;;;;;;;;;;19.05;100.00;98904.59;4998308;28;19932;-77
2022/09/05 03:39:08;;;;;;;;;;;;;;;19.11;100.00;98885.66;4997963;28;19926;-77
2022/09/05 03:41:54;;;;;;;;;;;;;;;19.05;100.00;98896.84;4997959;28;19925;-78
2022/09/05 03:44:21;;;;;;;;;;;;;;;19.05;100.00;98893.25;5014309;28;19936;-78
2022/09/05 03:46:48;;;;;;;;;;;;;;;18.98;100.00;98896.44;5014264;28;19932;-78
2022/09/05 03:49:33;;;;;;;;;;;;;;;19.06;100.00;98901.28;5014106;28;20354;-78
2022/09/05 03:52:04;;;;;;;;;;;;;;;19.14;100.00;98908.13;4997995;28;19964;-77
2022/09/05 03:54:40;;;;;;;;;;;;;;;19.24;100.00;98915.28;4997922;28;20029;-77
2022/09/05 03:57:17;;;;;;;;;;;;;;;19.10;100.00;98912.41;5066715;28;20088;-78
2022/09/05 04:00:08;;;;;;;;;;;;;;;19.05;100.00;98919.50;5057841;28;19974;-78
2022/09/05 04:02:50;;;;;;;;;;;;;;;18.97;100.00;98909.84;5075826;28;20062;-77
2022/09/05 04:05:20;;;;;;;;;;;;;;;18.96;100.00;98902.59;5058045;28;20025;-77
2022/09/05 04:07:52;;;;;;;;;;;;;;;18.95;100.00;98892.53;5075809;28;19924;-77
2022/09/05 04:10:22;;;;;;;;;;;;;;;18.73;100.00;98911.13;5057673;28;19924;-77
2022/09/05 04:12:55;;;;;;;;;;;;;;;18.91;100.00;98914.59;5041340;28;20359;-77
2022/09/05 04:15:28;;;;;;;;;;;;;;;18.75;100.00;98917.84;5075692;28;20023;-77
2022/09/05 04:17:58;;;;;;;;;;;;;;;18.68;100.00;98911.75;5057776;28;19931;-77
2022/09/05 04:20:34;;;;;;;;;;;;;;;18.95;100.00;98917.22;5075647;28;19932;-77
2022/09/05 04:23:13;;;;;;;;;;;;;;;18.53;100.00;98908.88;5034499;28;19932;-77
2022/09/05 04:25:47;;;;;;;;;;;;;;;18.02;100.00;98921.53;5017926;28;19991;-77
2022/09/05 04:28:14;;;;;;;;;;;;;;;18.38;100.00;98925.00;5035536;28;19948;-77
2022/09/05 04:30:44;;;;;;;;;;;;;;;18.50;100.00;98929.66;5035484;28;20027;-77
2022/09/05 04:33:11;;;;;;;;;;;;;;;18.67;100.00;98936.47;5035334;28;19925;-77
2022/09/05 04:35:57;;;;;;;;;;;;;;;18.81;100.00;98941.38;5017675;28;19925;-77
2022/09/05 04:38:35;;;;;;;;;;;;;;;18.74;100.00;98941.75;5033871;28;19932;-77
2022/09/05 04:41:08;;;;;;;;;;;;;;;18.84;100.00;98945.31;5034081;28;19925;-77
2022/09/05 04:43:41;;;;;;;;;;;;;;;19.00;100.00;98928.69;5033974;28;19948;-78
2022/09/05 04:46:24;;;;;;;;;;;;;;;19.12;100.00;98938.97;5035270;28;20349;-78
2022/09/05 04:48:57;;;;;;;;;;;;;;;19.07;100.00;98945.28;5034494;28;19925;-77
2022/09/05 04:51:57;;;;;;;;;;;;;;;18.87;100.00;98939.47;5015879;28;20296;-77
2022/09/05 04:54:32;;;;;;;;;;;;;;;19.18;100.00;98941.91;4952417;29;19949;-78
2022/09/05 04:57:01;;;;;;;;;;;;;;;19.08;100.00;98931.94;4937112;29;20390;-78
2022/09/05 04:59:33;;;;;;;;;;;;;;;18.97;100.00;98932.50;4953232;29;19926;-77
2022/09/05 05:02:04;;;;;;;;;;;;;;;18.83;100.00;98929.59;4937205;29;19934;-77
2022/09/05 05:04:31;;;;;;;;;;;;;;;18.39;100.00;98942.78;4953056;29;20569;-78
2022/09/05 05:07:16;;;;;;;;;;;;;;;18.33;100.00;98951.06;4938268;29;19973;-77
2022/09/05 05:09:47;;;;;;;;;;;;;;;18.62;100.00;98956.94;4951961;29;19930;-77
2022/09/05 05:12:20;;;;;;;;;;;;;;;18.72;100.00;98960.50;4954288;29;20025;-78
2022/09/05 05:14:47;;;;;;;;;;;;;;;18.65;100.00;98964.47;4954119;29;19926;-77
2022/09/05 05:17:23;;;;;;;;;;;;;;;18.47;100.00;98967.38;4954147;29;19934;-77
2022/09/05 05:19:55;;;;;;;;;;;;;;;18.23;100.00;98958.03;4954085;29;20359;-77
2022/09/05 05:22:22;;;;;;;;;;;;;;;17.99;100.00;98974.16;4967509;28;19937;-78
2022/09/05 05:24:54;;;;;;;;;;;;;;;18.10;100.00;98965.94;4957515;28;20412;-77
2022/09/05 05:27:31;;;;;;;;;;;;;;;17.64;100.00;98961.66;4957264;28;19932;-77
2022/09/05 05:29:58;;;;;;;;;;;;;;;17.85;100.00;98957.84;5010323;28;19931;-77
2022/09/05 05:32:33;;;;;;;;;;;;;;;17.82;100.00;98964.44;5054163;28;19947;-77
2022/09/05 05:35:07;;;;;;;;;;;;;;;17.57;100.00;98962.78;5052767;28;19925;-77
2022/09/05 05:37:54;;;;;;;;;;;;;;;18.09;100.00;98953.06;5053889;28;19932;-77
2022/09/05 05:40:25;;;;;;;;;;;;;;;18.05;100.00;98962.97;5053962;28;19928;-77
2022/09/05 05:42:52;;;;;;;;;;;;;;;17.97;100.00;98959.69;5054010;28;19932;-77
2022/09/05 05:45:19;;;;;;;;;;;;;;;18.45;100.00;98958.59;5052765;28;19928;-77
2022/09/05 05:47:50;;;;;;;;;;;;;;;18.27;100.00;98953.00;5053840;28;19925;-75
2022/09/05 05:50:21;;;;;;;;;;;;;;;18.43;100.00;98966.78;5052521;28;19932;-76
2022/09/05 05:53:06;;;;;;;;;;;;;;;18.33;100.00;98956.72;5052312;28;19928;-75
2022/09/05 05:55:34;;;;;;;;;;;;;;;18.41;100.00;98957.19;5053794;28;19932;-75
2022/09/05 05:58:10;;;;;;;;;;;;;;;18.58;100.00;98953.50;5053718;28;20299;-75
2022/09/05 06:00:37;;;;;;;;;;;;;;;18.72;100.00;98954.84;5036044;28;19931;-76
2022/09/05 06:03:19;;;;;;;;;;;;;;;18.33;100.00;98953.91;5052550;28;20348;-75
2022/09/05 06:06:06;;;;;;;;;;;;;;;18.32;100.00;98960.81;5053332;28;19925;-75
2022/09/05 06:08:43;;;;;;;;;;;;;;;18.35;100.00;98954.22;5035949;28;19936;-75
2022/09/05 06:11:16;;;;;;;;;;;;;;;18.50;100.00;98957.16;5052324;28;20324;-76
2022/09/05 06:14:03;;;;;;;;;;;;;;;18.90;100.00;98951.88;5053556;28;19951;-75
2022/09/05 06:16:33;;;;;;;;;;;;;;;18.84;100.00;98951.75;5052443;28;20269;-75
2022/09/05 06:19:10;;;;;;;;;;;;;;;18.13;100.00;98945.19;5053521;28;19932;-75
2022/09/05 06:21:50;;;;;;;;;;;;;;;18.82;100.00;98954.28;5044001;28;19976;-75
2022/09/05 06:24:52;;;;;;;;;;;;;;;18.84;100.00;98951.75;5033561;28;20027;-75
2022/09/05 06:27:39;;;;;;;;;;;;;;;18.72;100.00;98955.59;4995056;28;19949;-75
2022/09/05 06:30:07;;;;;;;;;;;;;;;18.58;100.00;98953.50;4994921;28;19980;-75
2022/09/05 06:32:57;;;;;;;;;;;;;;;18.99;100.00;98961.06;5011413;28;19948;-75
2022/09/05 06:35:46;;;;;;;;;;;;;;;18.84;100.00;98967.97;4999750;28;19931;-76
2022/09/05 06:38:38;;;;;;;;;;;;;;;19.00;100.00;98967.53;4995154;28;19925;-75
2022/09/05 06:41:31;;;;;;;;;;;;;;;18.77;100.00;98971.13;4995190;28;19932;-75
2022/09/05 06:44:18;;;;;;;;;;;;;;;18.78;100.00;98979.16;4974956;28;20337;-74
2022/09/05 06:46:46;;;;;;;;;;;;;;;18.08;100.00;98974.13;4997559;28;20447;-74
2022/09/05 06:49:42;;;;;;;;;;;;;;;17.85;100.00;98972.78;5014722;28;19954;-74
2022/09/05 06:52:29;;;;;;;;;;;;;;;17.71;100.00;98984.72;4996024;28;20471;-74
2022/09/05 06:55:05;;;;;;;;;;;;;;;18.17;100.00;98982.56;4982351;28;19926;-74
2022/09/05 06:57:51;;;;;;;;;;;;;;;17.98;100.00;98986.69;4998789;28;20027;-74
2022/09/05 07:00:22;;;;;;;;;;;;;;;18.10;100.00;98985.72;4998792;28;19932;-74
2022/09/05 07:03:12;;;;;;;;;;;;;;;18.28;100.00;98985.66;5013487;28;19932;-74
2022/09/05 07:05:43;;;;;;;;;;;;;;;17.73;100.00;98993.53;5003076;28;19925;-74
2022/09/05 07:08:17;;;;;;;;;;;;;;;17.39;100.00;99004.31;5035450;28;20380;-74
2022/09/05 07:10:55;;;;;;;;;;;;;;;16.80;100.00;99004.88;5036445;28;19936;-74
2022/09/05 07:13:29;;;;;;;;;;;;;;;16.69;100.00;99015.84;5036090;28;19929;-74
2022/09/05 07:15:59;;;;;;;;;;;;;;;16.70;100.00;99023.84;5034900;28;20388;-74
2022/09/05 07:18:44;;;;;;;;;;;;;;;16.80;100.00;99033.88;5036003;28;19925;-74
2022/09/05 07:21:32;;;;;;;;;;;;;;;16.97;100.00;99037.22;5026187;28;20261;-74
2022/09/05 07:24:08;;;;;;;;;;;;;;;17.13;100.00;99045.44;5058172;28;19970;-74
2022/09/05 07:26:41;;;;;;;;;;;;;;;17.65;100.00;99043.13;5058386;28;19924;-74
2022/09/05 07:29:08;;;;;;;;;;;;;;;17.72;100.00;99053.34;5076259;28;19947;-74
2022/09/05 07:31:36;;;;;;;;;;;;;;;17.76;100.00;99065.25;5041998;28;19979;-74
2022/09/05 07:34:18;;;;;;;;;;;;;;;17.91;100.00;99055.69;5075926;28;19935;-74
2022/09/05 07:36:47;;;;;;;;;;;;;;;18.22;100.00;99049.78;5076290;28;19925;-74
2022/09/05 07:39:19;;;;;;;;;;;;;;;18.86;100.00;99051.13;5041607;28;20311;-74
2022/09/05 07:41:56;;;;;;;;;;;;;;;19.10;100.00;99043.44;5076333;28;19947;-74
2022/09/05 07:44:26;;;;;;;;;;;;;;;19.12;100.00;99037.28;5041865;28;19929;-75
2022/09/05 07:47:12;;;;;;;;;;;;;;;18.73;100.00;99044.94;5057760;28;19928;-77
2022/09/05 07:49:41;;;;;;;;;;;;;;;19.26;100.00;99040.22;5053567;28;19931;-77
2022/09/05 07:52:15;;;;;;;;;;;;;;;19.07;100.00;99032.28;5070824;28;19928;-77
2022/09/05 07:54:45;;;;;;;;;;;;;;;19.52;100.00;99032.00;5053596;28;19925;-78
2022/09/05 07:57:23;;;;;;;;;;;;;;;19.00;100.00;99019.28;5071126;28;19924;-77
2022/09/05 08:00:22;;;;;;;;;;;;;;;19.11;100.00;99021.59;5054811;28;19956;-77
2022/09/05 08:02:51;;;;;;;;;;;;;;;19.35;100.00;99023.16;5052568;28;20050;-75
2022/09/05 08:05:21;;;;;;;;;;;;;;;19.40;100.00;99033.06;5054529;28;19977;-75
2022/09/05 08:07:54;;;;;;;;;;;;;;;19.11;100.00;99022.38;5053544;28;19929;-76
2022/09/05 08:10:34;;;;;;;;;;;;;;;19.50;100.00;99024.00;5053616;28;19925;-76
2022/09/05 08:13:10;;;;;;;;;;;;;;;20.01;100.00;99014.41;5053815;28;19928;-76
2022/09/05 08:15:41;;;;;;;;;;;;;;;20.28;100.00;99023.41;5037025;28;19964;-76
2022/09/05 08:18:08;;;;;;;;;;;;;;;20.57;100.00;99022.59;5053419;28;19924;-77
2022/09/05 08:20:46;;;;;;;;;;;;;;;20.65;100.00;99021.69;5071882;28;20043;-76
2022/09/05 08:23:32;;;;;;;;;;;;;;;20.63;100.00;99020.63;5053806;28;20407;-76
2022/09/05 08:26:11;;;;;;;;;;;;;;;19.34;100.00;99026.50;5037646;28;19936;-76
2022/09/05 08:28:54;;;;;;;;;;;;;;;19.94;100.00;99029.72;5071398;28;20436;-78
2022/09/05 08:31:43;;;;;;;;;;;;;;;20.28;100.00;99029.06;5073128;28;19939;-78
2022/09/05 08:34:17;;;;;;;;;;;;;;;20.56;100.00;99038.06;5053167;28;19947;-76
2022/09/05 08:36:46;;;;;;;;;;;;;;;20.33;100.00;99021.94;5070413;28;20019;-78
2022/09/05 08:39:17;;;;;;;;;;;;;;;19.82;100.00;99027.97;5071016;28;19929;-76
2022/09/05 08:41:56;;;;;;;;;;;;;;;20.27;100.00;99038.06;5072770;28;19963;-77
2022/09/05 08:44:38;;;;;;;;;;;;;;;19.97;100.00;99030.81;5090866;28;19924;-78
2022/09/05 08:47:05;;;;;;;;;;;;;;;19.42;100.00;99039.78;5091349;28;19924;-75
2022/09/05 08:49:44;;;;;;;;;;;;;;;19.77;100.00;99033.50;5090723;28;19924;-77
2022/09/05 08:52:30;;;;;;;;;;;;;;;20.19;100.00;99036.91;5091187;28;20495;-77
2022/09/05 08:55:01;;;;;;;;;;;;;;;20.41;100.00;99034.44;5073323;28;20386;-78
2022/09/05 08:57:44;;;;;;;;;;;;;;;20.81;100.00;99038.19;5084136;28;19931;-77
2022/09/05 09:00:16;;;;;;;;;;;;;;;19.76;100.00;99043.28;5052248;28;20315;-79
2022/09/05 09:02:49;;;;;;;;;;;;;;;19.75;100.00;99041.75;5057136;28;19928;-81
2022/09/05 09:05:36;;;;;;;;;;;;;;;19.91;100.00;99039.22;5036805;28;19977;-80
2022/09/05 09:08:03;;;;;;;;;;;;;;;20.69;100.00;99030.78;5053010;28;19932;-80
2022/09/05 09:10:43;;;;;;;;;;;;;;;20.84;100.00;99037.22;5075235;28;20018;-80
2022/09/05 09:13:29;;;;;;;;;;;;;;;21.58;100.00;99032.84;5079779;28;20493;-81
2022/09/05 09:16:06;;;;;;;;;;;;;;;21.68;100.00;99020.03;5070853;28;20399;-78
2022/09/05 09:18:43;;;;;;;;;;;;;;;21.98;100.00;99024.25;5070479;28;19931;-78
2022/09/05 09:21:29;;;;;;;;;;;;;;;22.37;100.00;99013.25;5038484;28;19950;-80
2022/09/05 09:24:21;;;;;;;;;;;;;;;22.33;100.00;99016.31;5075725;28;19925;-79
2022/09/05 09:27:05;;;;;;;;;;;;;;;22.52;100.00;99008.97;5070311;28;19960;-81
2022/09/05 09:29:37;;;;;;;;;;;;;;;22.29;100.00;99000.75;5058997;28;19925;-79
2022/09/05 09:32:09;;;;;;;;;;;;;;;22.51;100.00;99012.34;5041900;28;20271;-80
2022/09/05 09:34:42;;;;;;;;;;;;;;;21.99;100.00;99016.50;5062591;28;19931;-82
2022/09/05 09:37:28;;;;;;;;;;;;;;;20.38;100.00;99033.38;5053113;28;19928;-83
2022/09/05 09:39:55;;;;;;;;;;;;;;;21.08;100.00;99028.56;5071828;28;19925;-81
2022/09/05 09:42:44;;;;;;;;;;;;;;;21.90;100.00;99030.91;5082499;28;19932;-79
2022/09/05 09:45:11;;;;;;;;;;;;;;;22.08;100.00;99019.97;5084015;28;19924;-82
2022/09/05 09:47:50;;;;;;;;;;;;;;;21.24;100.00;99022.31;5077220;28;19932;-78
2022/09/05 09:50:27;;;;;;;;;;;;;;;20.84;100.00;99025.09;5079965;28;20421;-79
2022/09/05 09:53:11;;;;;;;;;;;;;;;21.52;100.00;99017.78;5072357;28;20369;-83
2022/09/05 09:55:41;;;;;;;;;;;;;;;20.65;100.00;99029.44;5073179;28;19931;-84
2022/09/05 09:58:08;;;;;;;;;;;;;;;21.76;100.00;99015.50;5072345;28;19924;-79
2022/09/05 10:00:56;;;;;;;;;;;;;;;22.29;100.00;99018.63;5073616;28;19931;-83
2022/09/05 10:03:30;;;;;;;;;;;;;;;22.18;100.00;99018.50;5073643;28;20291;-78
2022/09/05 10:06:00;;;;;;;;;;;;;;;22.45;100.00;99005.78;5072277;28;19989;-79
2022/09/05 10:08:43;;;;;;;;;;;;;;;22.48;100.00;99013.31;5073003;28;19924;-79
2022/09/05 10:11:13;;;;;;;;;;;;;;;22.52;100.00;99003.28;5090125;28;19977;-79
2022/09/05 10:14:11;;;;;;;;;;;;;;;22.49;100.00;99027.03;5049891;28;20356;-85
2022/09/05 10:16:58;;;;;;;;;;;;;;;22.42;100.00;99021.03;5056089;28;19924;-80
2022/09/05 10:19:45;;;;;;;;;;;;;;;21.99;100.00;99020.13;5055984;28;20304;-80
2022/09/05 10:22:39;;;;;;;;;;;;;;;22.74;100.00;99006.31;5077579;28;19978;-81
2022/09/05 10:25:21;;;;;;;;;;;;;;;22.60;100.00;98998.69;5060084;28;19931;-80
2022/09/05 10:27:55;;;;;;;;;;;;;;;22.80;100.00;98997.78;5042998;28;19928;-80
2022/09/05 10:30:27;;;;;;;;;;;;;;;22.82;100.00;99004.56;5077902;28;19969;-80
2022/09/05 10:33:06;;;;;;;;;;;;;;;22.86;100.00;98987.22;5060188;28;19987;-81
2022/09/05 10:35:34;;;;;;;;;;;;;;;22.32;100.00;98989.16;5077852;28;19925;-80
2022/09/05 10:38:05;;;;;;;;;;;;;;;22.55;100.00;98990.88;5077742;28;19928;-80
2022/09/05 10:40:34;;;;;;;;;;;;;;;22.17;100.00;98984.84;5077465;28;20400;-79
2022/09/05 10:43:11;;;;;;;;;;;;;;;22.62;100.00;98981.09;5042801;28;19970;-80
2022/09/05 10:45:47;;;;;;;;;;;;;;;22.91;100.00;98992.19;5077473;28;19951;-80
2022/09/05 10:48:24;;;;;;;;;;;;;;;22.80;100.00;98978.66;5077382;28;19931;-79
2022/09/05 10:51:03;;;;;;;;;;;;;;;23.32;100.00;98972.72;5077312;28;19924;-79
2022/09/05 10:53:48;;;;;;;;;;;;;;;22.97;100.00;98970.19;5077289;28;19924;-79
2022/09/05 10:56:20;;;;;;;;;;;;;;;23.30;100.00;98958.19;5059107;28;19928;-79
2022/09/05 10:59:00;;;;;;;;;;;;;;;23.39;100.00;98955.13;5059354;28;20421;-83
2022/09/05 11:01:39;;;;;;;;;;;;;;;23.10;100.00;98950.56;5077033;28;20022;-79
2022/09/05 11:04:21;;;;;;;;;;;;;;;22.95;100.00;98947.91;5059741;28;20039;-80
2022/09/05 11:06:51;;;;;;;;;;;;;;;22.42;100.00;98959.19;5042501;28;20363;-80
2022/09/05 11:09:38;;;;;;;;;;;;;;;22.63;100.00;98962.72;5058828;28;20298;-79
2022/09/05 11:12:25;;;;;;;;;;;;;;;22.36;100.00;98958.38;5076348;28;20367;-80
2022/09/05 11:14:54;;;;;;;;;;;;;;;22.79;100.00;98968.56;5058908;28;19954;-80
2022/09/05 11:17:38;;;;;;;;;;;;;;;23.31;100.00;98971.94;5042417;28;19924;-79
2022/09/05 11:20:23;;;;;;;;;;;;;;;23.27;100.00;98962.84;5059138;28;20011;-80
2022/09/05 11:22:56;;;;;;;;;;;;;;;23.75;100.00;98966.38;5042293;28;19925;-80
2022/09/05 11:25:26;;;;;;;;;;;;;;;23.31;100.00;98965.47;5058866;28;19929;-80
2022/09/05 11:27:55;;;;;;;;;;;;;;;22.83;100.00;98969.09;5076502;28;19924;-79
2022/09/05 11:30:32;;;;;;;;;;;;;;;22.89;100.00;98969.91;5059294;28;19925;-81
2022/09/05 11:33:08;;;;;;;;;;;;;;;22.78;100.00;98974.75;5075861;28;19924;-81
2022/09/05 11:35:38;;;;;;;;;;;;;;;23.16;100.00;98973.41;5074866;28;19928;-81
2022/09/05 11:38:22;;;;;;;;;;;;;;;23.27;100.00;98970.63;5039675;28;19928;-81
2022/09/05 11:40:52;;;;;;;;;;;;;;;23.02;100.00;98966.59;5056056;28;19978;-81
2022/09/05 11:43:46;;;;;;;;;;;;;;;23.42;100.00;98954.09;5074146;28;19931;-81
2022/09/05 11:46:32;;;;;;;;;;;;;;;24.12;100.00;98954.78;5056372;28;20340;-82
2022/09/05 11:49:05;;;;;;;;;;;;;;;24.25;100.00;98949.34;5040835;28;19986;-82
2022/09/05 11:51:48;;;;;;;;;;;;;;;24.50;100.00;98956.84;5057461;28;19931;-82
2022/09/05 11:54:25;;;;;;;;;;;;;;;23.93;100.00;98948.00;5057017;28;19935;-81
2022/09/05 11:56:53;;;;;;;;;;;;;;;24.21;100.00;98957.38;5040967;28;19924;-81
2022/09/05 11:59:46;;;;;;;;;;;;;;;23.29;100.00;98942.38;5024245;28;19978;-81
2022/09/05 12:02:25;;;;;;;;;;;;;;;23.40;100.00;98942.44;5057026;28;20035;-81
2022/09/05 12:05:03;;;;;;;;;;;;;;;23.84;100.00;98951.09;5075048;28;19928;-81
2022/09/05 12:08:10;;;;;;;;;;;;;;;24.29;100.00;98947.00;5056948;28;19928;-83
2022/09/05 12:10:42;;;;;;;;;;;;;;;24.31;100.00;98938.72;5040219;28;20434;-83
2022/09/05 12:13:18;;;;;;;;;;;;;;;23.81;100.00;98957.84;5040594;28;19924;-83
2022/09/05 12:15:46;;;;;;;;;;;;;;;23.48;100.00;98952.06;5040089;28;19975;-81
2022/09/05 12:18:14;;;;;;;;;;;;;;;23.62;100.00;98951.84;5040548;28;19974;-81
2022/09/05 12:20:55;;;;;;;;;;;;;;;23.83;100.00;98940.97;5056675;28;19925;-81
2022/09/05 12:23:40;;;;;;;;;;;;;;;24.06;100.00;98951.16;5056495;28;20380;-81
2022/09/05 12:26:09;;;;;;;;;;;;;;;24.22;100.00;98947.53;5040554;28;20062;-81
2022/09/05 12:28:40;;;;;;;;;;;;;;;23.49;100.00;98965.00;5056628;28;19930;-81
2022/09/05 12:31:10;;;;;;;;;;;;;;;24.35;100.00;98950.63;5056773;28;19924;-81
2022/09/05 12:33:37;;;;;;;;;;;;;;;24.58;100.00;98952.19;5039977;28;19924;-81
2022/09/05 12:36:04;;;;;;;;;;;;;;;24.91;100.00;98937.84;5056709;28;20030;-81
2022/09/05 12:39:01;;;;;;;;;;;;;;;23.95;100.00;98945.38;5024313;28;19970;-81
2022/09/05 12:41:37;;;;;;;;;;;;;;;23.28;100.00;98944.44;5056581;28;19928;-81
2022/09/05 12:44:40;;;;;;;;;;;;;;;22.65;100.00;98955.25;5073342;28;20292;-81
2022/09/05 12:47:15;;;;;;;;;;;;;;;22.85;100.00;98952.28;5040256;28;19931;-81
2022/09/05 12:49:46;;;;;;;;;;;;;;;22.88;100.00;98951.25;5056883;28;19928;-81
2022/09/05 12:52:18;;;;;;;;;;;;;;;23.89;100.00;98942.53;5022940;28;19972;-81
2022/09/05 12:54:45;;;;;;;;;;;;;;;24.45;100.00;98944.13;5039710;28;19928;-81
2022/09/05 12:57:26;;;;;;;;;;;;;;;24.16;100.00;98943.88;5039583;28;19928;-82
2022/09/05 12:59:56;;;;;;;;;;;;;;;23.92;100.00;98943.56;5074203;28;19931;-82
2022/09/05 13:02:28;;;;;;;;;;;;;;;24.55;100.00;98953.22;5056383;28;20329;-82
2022/09/05 13:05:00;;;;;;;;;;;;;;;24.65;100.00;98934.53;5055850;28;20143;-82
2022/09/05 13:07:28;;;;;;;;;;;;;;;24.13;100.00;98956.34;5039182;28;19932;-81
2022/09/05 13:09:58;;;;;;;;;;;;;;;23.60;100.00;98953.66;5073756;28;19928;-81
2022/09/05 13:12:29;;;;;;;;;;;;;;;24.28;100.00;98940.50;5047133;28;19935;-82
2022/09/05 13:15:04;;;;;;;;;;;;;;;24.46;100.00;98959.19;5092076;28;19935;-82
2022/09/05 13:17:43;;;;;;;;;;;;;;;22.71;100.00;98963.81;5075941;28;19947;-81
2022/09/05 13:20:16;;;;;;;;;;;;;;;24.05;100.00;98949.59;5075424;28;19925;-82
2022/09/05 13:22:48;;;;;;;;;;;;;;;24.28;100.00;98951.16;5058804;28;19963;-82
2022/09/05 13:25:23;;;;;;;;;;;;;;;24.38;100.00;98935.31;5075928;28;20405;-81